sensor_id;sensor_type;location;lat;lon;timestamp;P1;durP1;ratioP1;P2;durP2;ratioP2
15317;SDS011;7759;52.528;13.346;2023-06-24T00:01:10;6.75;;;5.90;;
15317;SDS011;7759;52.528;13.346;2023-06-24T00:03:38;7.32;;;5.63;;
15317;SDS011;7759;52.528;13.346;2023-06-24T00:06:04;10.35;;;5.82;;
15317;SDS011;7759;52.528;13.346;2023-06-24T00:08:31;8.07;;;6.30;;
15317;SDS011;7759;52.528;13.346;2023-06-24T00:11:01;9.13;;;5.97;;
15317;SDS011;7759;52.528;13.346;2023-06-24T00:13:27;7.70;;;5.32;;
15317;SDS011;7759;52.528;13.346;2023-06-24T00:15:56;9.57;;;6.15;;
15317;SDS011;7759;52.528;13.346;2023-06-24T00:18:22;10.82;;;7.25;;
15317;SDS011;7759;52.528;13.346;2023-06-24T00:20:49;10.07;;;6.80;;
15317;SDS011;7759;52.528;13.346;2023-06-24T00:23:16;11.82;;;7.38;;
15317;SDS011;7759;52.528;13.346;2023-06-24T00:25:42;9.75;;;7.18;;
15317;SDS011;7759;52.528;13.346;2023-06-24T00:28:08;14.80;;;8.35;;
15317;SDS011;7759;52.528;13.346;2023-06-24T00:30:34;9.23;;;6.93;;
15317;SDS011;7759;52.528;13.346;2023-06-24T00:33:00;10.77;;;7.50;;
15317;SDS011;7759;52.528;13.346;2023-06-24T00:35:27;11.68;;;7.85;;
15317;SDS011;7759;52.528;13.346;2023-06-24T00:37:53;10.80;;;7.70;;
15317;SDS011;7759;52.528;13.346;2023-06-24T00:40:23;12.23;;;8.00;;
15317;SDS011;7759;52.528;13.346;2023-06-24T00:42:48;12.55;;;8.05;;
15317;SDS011;7759;52.528;13.346;2023-06-24T00:45:15;10.32;;;7.35;;
15317;SDS011;7759;52.528;13.346;2023-06-24T00:47:43;12.23;;;8.23;;
15317;SDS011;7759;52.528;13.346;2023-06-24T00:50:09;10.90;;;7.85;;
15317;SDS011;7759;52.528;13.346;2023-06-24T00:52:37;10.38;;;7.60;;
15317;SDS011;7759;52.528;13.346;2023-06-24T00:55:07;13.15;;;8.45;;
15317;SDS011;7759;52.528;13.346;2023-06-24T00:57:33;10.00;;;7.82;;
15317;SDS011;7759;52.528;13.346;2023-06-24T01:00:03;12.38;;;7.78;;
15317;SDS011;7759;52.528;13.346;2023-06-24T01:02:35;12.88;;;8.23;;
15317;SDS011;7759;52.528;13.346;2023-06-24T01:05:02;13.35;;;7.72;;
15317;SDS011;7759;52.528;13.346;2023-06-24T01:07:29;10.45;;;7.70;;
15317;SDS011;7759;52.528;13.346;2023-06-24T01:09:55;11.15;;;7.72;;
15317;SDS011;7759;52.528;13.346;2023-06-24T01:12:21;11.02;;;7.47;;
15317;SDS011;7759;52.528;13.346;2023-06-24T01:14:47;11.32;;;7.03;;
15317;SDS011;7759;52.528;13.346;2023-06-24T01:17:15;10.43;;;7.25;;
15317;SDS011;7759;52.528;13.346;2023-06-24T01:19:59;10.80;;;7.60;;
15317;SDS011;7759;52.528;13.346;2023-06-24T01:27:52;9.13;;;6.97;;
15317;SDS011;7759;52.528;13.346;2023-06-24T01:30:27;9.50;;;7.38;;
15317;SDS011;7759;52.528;13.346;2023-06-24T01:32:59;13.75;;;8.15;;
15317;SDS011;7759;52.528;13.346;2023-06-24T01:35:28;9.88;;;6.32;;
15317;SDS011;7759;52.528;13.346;2023-06-24T01:37:57;12.10;;;7.22;;
15317;SDS011;7759;52.528;13.346;2023-06-24T01:40:26;8.70;;;6.40;;
15317;SDS011;7759;52.528;13.346;2023-06-24T01:42:52;11.43;;;7.10;;
15317;SDS011;7759;52.528;13.346;2023-06-24T01:45:19;9.68;;;7.05;;
15317;SDS011;7759;52.528;13.346;2023-06-24T01:47:47;13.55;;;6.97;;
15317;SDS011;7759;52.528;13.346;2023-06-24T01:50:14;7.68;;;5.90;;
15317;SDS011;7759;52.528;13.346;2023-06-24T01:52:43;11.13;;;6.22;;
15317;SDS011;7759;52.528;13.346;2023-06-24T01:55:10;8.55;;;6.30;;
15317;SDS011;7759;52.528;13.346;2023-06-24T01:57:36;9.43;;;6.85;;
15317;SDS011;7759;52.528;13.346;2023-06-24T02:00:03;10.82;;;6.43;;
15317;SDS011;7759;52.528;13.346;2023-06-24T02:02:31;9.60;;;7.15;;
15317;SDS011;7759;52.528;13.346;2023-06-24T02:04:57;9.80;;;6.88;;
15317;SDS011;7759;52.528;13.346;2023-06-24T02:07:24;10.48;;;6.72;;
15317;SDS011;7759;52.528;13.346;2023-06-24T02:09:52;9.77;;;6.47;;
15317;SDS011;7759;52.528;13.346;2023-06-24T02:12:18;8.82;;;6.88;;
15317;SDS011;7759;52.528;13.346;2023-06-24T02:14:45;11.90;;;6.47;;
15317;SDS011;7759;52.528;13.346;2023-06-24T02:17:11;11.15;;;7.65;;
15317;SDS011;7759;52.528;13.346;2023-06-24T02:19:37;12.32;;;6.78;;
15317;SDS011;7759;52.528;13.346;2023-06-24T02:22:04;9.88;;;6.90;;
15317;SDS011;7759;52.528;13.346;2023-06-24T02:24:34;11.70;;;7.72;;
15317;SDS011;7759;52.528;13.346;2023-06-24T02:27:00;11.65;;;7.55;;
15317;SDS011;7759;52.528;13.346;2023-06-24T02:29:26;9.00;;;7.00;;
15317;SDS011;7759;52.528;13.346;2023-06-24T02:31:53;9.55;;;6.78;;
15317;SDS011;7759;52.528;13.346;2023-06-24T02:34:19;11.15;;;6.40;;
15317;SDS011;7759;52.528;13.346;2023-06-24T02:36:45;9.43;;;6.43;;
15317;SDS011;7759;52.528;13.346;2023-06-24T02:39:11;10.95;;;6.03;;
15317;SDS011;7759;52.528;13.346;2023-06-24T02:41:37;10.73;;;7.00;;
15317;SDS011;7759;52.528;13.346;2023-06-24T02:44:03;12.02;;;6.25;;
15317;SDS011;7759;52.528;13.346;2023-06-24T02:46:28;12.88;;;7.65;;
15317;SDS011;7759;52.528;13.346;2023-06-24T02:48:56;10.30;;;7.30;;
15317;SDS011;7759;52.528;13.346;2023-06-24T02:51:22;9.20;;;6.80;;
15317;SDS011;7759;52.528;13.346;2023-06-24T02:53:48;9.15;;;5.95;;
15317;SDS011;7759;52.528;13.346;2023-06-24T02:56:14;7.35;;;5.90;;
15317;SDS011;7759;52.528;13.346;2023-06-24T02:58:45;7.25;;;6.00;;
15317;SDS011;7759;52.528;13.346;2023-06-24T03:01:11;8.52;;;6.43;;
15317;SDS011;7759;52.528;13.346;2023-06-24T03:03:37;7.60;;;5.82;;
15317;SDS011;7759;52.528;13.346;2023-06-24T03:06:04;10.50;;;6.13;;
15317;SDS011;7759;52.528;13.346;2023-06-24T03:08:30;7.22;;;5.57;;
15317;SDS011;7759;52.528;13.346;2023-06-24T03:10:57;7.97;;;5.82;;
15317;SDS011;7759;52.528;13.346;2023-06-24T03:13:23;7.65;;;5.35;;
15317;SDS011;7759;52.528;13.346;2023-06-24T03:15:49;7.28;;;5.75;;
15317;SDS011;7759;52.528;13.346;2023-06-24T03:18:15;7.70;;;5.93;;
15317;SDS011;7759;52.528;13.346;2023-06-24T03:20:42;8.68;;;5.90;;
15317;SDS011;7759;52.528;13.346;2023-06-24T03:23:08;11.88;;;5.38;;
15317;SDS011;7759;52.528;13.346;2023-06-24T03:25:34;8.48;;;6.15;;
15317;SDS011;7759;52.528;13.346;2023-06-24T03:28:00;9.45;;;6.28;;
15317;SDS011;7759;52.528;13.346;2023-06-24T03:30:28;7.28;;;6.00;;
15317;SDS011;7759;52.528;13.346;2023-06-24T03:32:54;10.15;;;6.95;;
15317;SDS011;7759;52.528;13.346;2023-06-24T03:35:20;8.55;;;6.10;;
15317;SDS011;7759;52.528;13.346;2023-06-24T03:37:47;7.65;;;5.70;;
15317;SDS011;7759;52.528;13.346;2023-06-24T03:40:13;8.45;;;5.63;;
15317;SDS011;7759;52.528;13.346;2023-06-24T03:42:39;10.18;;;6.07;;
15317;SDS011;7759;52.528;13.346;2023-06-24T03:45:05;8.52;;;5.85;;
15317;SDS011;7759;52.528;13.346;2023-06-24T03:47:31;6.32;;;5.22;;
15317;SDS011;7759;52.528;13.346;2023-06-24T03:49:57;7.95;;;6.07;;
15317;SDS011;7759;52.528;13.346;2023-06-24T03:52:23;8.98;;;5.90;;
15317;SDS011;7759;52.528;13.346;2023-06-24T03:54:49;8.82;;;6.28;;
15317;SDS011;7759;52.528;13.346;2023-06-24T03:57:15;7.35;;;4.93;;
15317;SDS011;7759;52.528;13.346;2023-06-24T03:59:41;10.98;;;6.07;;
15317;SDS011;7759;52.528;13.346;2023-06-24T04:02:06;9.40;;;6.28;;
15317;SDS011;7759;52.528;13.346;2023-06-24T04:04:35;6.65;;;5.00;;
15317;SDS011;7759;52.528;13.346;2023-06-24T04:07:02;7.75;;;5.30;;
15317;SDS011;7759;52.528;13.346;2023-06-24T04:09:31;9.95;;;6.10;;
15317;SDS011;7759;52.528;13.346;2023-06-24T04:11:57;7.72;;;5.50;;
15317;SDS011;7759;52.528;13.346;2023-06-24T04:14:23;10.23;;;5.75;;
15317;SDS011;7759;52.528;13.346;2023-06-24T04:16:49;10.35;;;5.75;;
15317;SDS011;7759;52.528;13.346;2023-06-24T04:19:15;11.00;;;6.22;;
15317;SDS011;7759;52.528;13.346;2023-06-24T04:21:41;6.82;;;5.15;;
15317;SDS011;7759;52.528;13.346;2023-06-24T04:24:07;7.70;;;5.80;;
15317;SDS011;7759;52.528;13.346;2023-06-24T04:26:33;7.15;;;5.60;;
15317;SDS011;7759;52.528;13.346;2023-06-24T04:28:59;9.70;;;7.05;;
15317;SDS011;7759;52.528;13.346;2023-06-24T04:31:25;9.63;;;5.22;;
15317;SDS011;7759;52.528;13.346;2023-06-24T04:33:52;8.95;;;6.00;;
15317;SDS011;7759;52.528;13.346;2023-06-24T04:36:18;9.02;;;6.05;;
15317;SDS011;7759;52.528;13.346;2023-06-24T04:38:44;8.57;;;5.95;;
15317;SDS011;7759;52.528;13.346;2023-06-24T04:41:10;7.07;;;5.53;;
15317;SDS011;7759;52.528;13.346;2023-06-24T04:43:36;10.65;;;5.93;;
15317;SDS011;7759;52.528;13.346;2023-06-24T04:46:02;10.15;;;6.90;;
15317;SDS011;7759;52.528;13.346;2023-06-24T04:48:28;9.98;;;6.15;;
15317;SDS011;7759;52.528;13.346;2023-06-24T04:50:54;9.93;;;6.35;;
15317;SDS011;7759;52.528;13.346;2023-06-24T04:53:21;7.45;;;5.78;;
15317;SDS011;7759;52.528;13.346;2023-06-24T04:55:47;9.60;;;5.85;;
15317;SDS011;7759;52.528;13.346;2023-06-24T04:58:13;10.40;;;6.43;;
15317;SDS011;7759;52.528;13.346;2023-06-24T05:00:39;7.90;;;6.00;;
15317;SDS011;7759;52.528;13.346;2023-06-24T05:03:04;7.95;;;5.85;;
15317;SDS011;7759;52.528;13.346;2023-06-24T05:05:31;9.68;;;6.15;;
15317;SDS011;7759;52.528;13.346;2023-06-24T05:07:56;11.82;;;7.95;;
15317;SDS011;7759;52.528;13.346;2023-06-24T05:10:22;10.88;;;5.97;;
15317;SDS011;7759;52.528;13.346;2023-06-24T05:12:48;8.13;;;5.88;;
15317;SDS011;7759;52.528;13.346;2023-06-24T05:15:14;13.68;;;6.78;;
15317;SDS011;7759;52.528;13.346;2023-06-24T05:17:40;7.57;;;5.40;;
15317;SDS011;7759;52.528;13.346;2023-06-24T05:20:06;10.25;;;5.43;;
15317;SDS011;7759;52.528;13.346;2023-06-24T05:22:32;8.63;;;5.80;;
15317;SDS011;7759;52.528;13.346;2023-06-24T05:24:58;8.40;;;6.45;;
15317;SDS011;7759;52.528;13.346;2023-06-24T05:27:24;8.45;;;6.38;;
15317;SDS011;7759;52.528;13.346;2023-06-24T05:29:50;10.23;;;6.22;;
15317;SDS011;7759;52.528;13.346;2023-06-24T05:32:16;8.63;;;5.70;;
15317;SDS011;7759;52.528;13.346;2023-06-24T05:34:44;8.45;;;5.50;;
15317;SDS011;7759;52.528;13.346;2023-06-24T05:37:10;7.82;;;5.45;;
15317;SDS011;7759;52.528;13.346;2023-06-24T05:39:36;8.23;;;5.20;;
15317;SDS011;7759;52.528;13.346;2023-06-24T05:42:02;11.32;;;6.22;;
15317;SDS011;7759;52.528;13.346;2023-06-24T05:44:28;8.30;;;5.68;;
15317;SDS011;7759;52.528;13.346;2023-06-24T05:46:54;8.20;;;5.43;;
15317;SDS011;7759;52.528;13.346;2023-06-24T05:49:20;8.65;;;5.32;;
15317;SDS011;7759;52.528;13.346;2023-06-24T05:51:48;6.68;;;5.47;;
15317;SDS011;7759;52.528;13.346;2023-06-24T05:54:14;8.95;;;6.05;;
15317;SDS011;7759;52.528;13.346;2023-06-24T05:56:40;8.15;;;4.50;;
15317;SDS011;7759;52.528;13.346;2023-06-24T05:59:06;8.40;;;5.45;;
15317;SDS011;7759;52.528;13.346;2023-06-24T06:01:32;8.75;;;5.55;;
15317;SDS011;7759;52.528;13.346;2023-06-24T06:03:58;10.18;;;6.45;;
15317;SDS011;7759;52.528;13.346;2023-06-24T06:06:24;7.97;;;5.47;;
15317;SDS011;7759;52.528;13.346;2023-06-24T06:08:50;6.88;;;5.55;;
15317;SDS011;7759;52.528;13.346;2023-06-24T06:11:16;7.65;;;5.60;;
15317;SDS011;7759;52.528;13.346;2023-06-24T06:13:41;8.95;;;5.65;;
15317;SDS011;7759;52.528;13.346;2023-06-24T06:16:07;9.32;;;5.95;;
15317;SDS011;7759;52.528;13.346;2023-06-24T06:18:33;8.27;;;6.03;;
15317;SDS011;7759;52.528;13.346;2023-06-24T06:20:59;8.85;;;5.18;;
15317;SDS011;7759;52.528;13.346;2023-06-24T06:23:25;9.35;;;5.53;;
15317;SDS011;7759;52.528;13.346;2023-06-24T06:25:52;9.10;;;5.05;;
15317;SDS011;7759;52.528;13.346;2023-06-24T06:28:18;6.85;;;5.25;;
15317;SDS011;7759;52.528;13.346;2023-06-24T06:30:44;8.70;;;5.93;;
15317;SDS011;7759;52.528;13.346;2023-06-24T06:33:09;10.43;;;6.00;;
15317;SDS011;7759;52.528;13.346;2023-06-24T06:35:35;6.55;;;4.85;;
15317;SDS011;7759;52.528;13.346;2023-06-24T06:38:01;8.85;;;5.60;;
15317;SDS011;7759;52.528;13.346;2023-06-24T06:40:27;6.30;;;5.00;;
15317;SDS011;7759;52.528;13.346;2023-06-24T06:42:53;7.28;;;5.35;;
15317;SDS011;7759;52.528;13.346;2023-06-24T06:45:19;7.95;;;5.30;;
15317;SDS011;7759;52.528;13.346;2023-06-24T06:47:45;6.78;;;5.20;;
15317;SDS011;7759;52.528;13.346;2023-06-24T06:50:11;6.57;;;5.63;;
15317;SDS011;7759;52.528;13.346;2023-06-24T06:52:37;8.35;;;5.15;;
15317;SDS011;7759;52.528;13.346;2023-06-24T06:55:03;10.98;;;5.70;;
15317;SDS011;7759;52.528;13.346;2023-06-24T06:57:29;8.90;;;5.38;;
15317;SDS011;7759;52.528;13.346;2023-06-24T06:59:56;7.25;;;5.20;;
15317;SDS011;7759;52.528;13.346;2023-06-24T07:02:22;7.25;;;5.22;;
15317;SDS011;7759;52.528;13.346;2023-06-24T07:04:48;8.00;;;4.85;;
15317;SDS011;7759;52.528;13.346;2023-06-24T07:07:15;5.97;;;5.00;;
15317;SDS011;7759;52.528;13.346;2023-06-24T07:09:41;8.13;;;5.25;;
15317;SDS011;7759;52.528;13.346;2023-06-24T07:12:07;6.38;;;4.85;;
15317;SDS011;7759;52.528;13.346;2023-06-24T07:14:33;7.13;;;5.00;;
15317;SDS011;7759;52.528;13.346;2023-06-24T07:16:59;6.95;;;4.50;;
15317;SDS011;7759;52.528;13.346;2023-06-24T07:19:25;6.95;;;4.47;;
15317;SDS011;7759;52.528;13.346;2023-06-24T07:21:51;7.45;;;4.18;;
15317;SDS011;7759;52.528;13.346;2023-06-24T07:24:17;5.97;;;4.63;;
15317;SDS011;7759;52.528;13.346;2023-06-24T07:26:43;5.43;;;4.40;;
15317;SDS011;7759;52.528;13.346;2023-06-24T07:29:09;5.38;;;4.30;;
15317;SDS011;7759;52.528;13.346;2023-06-24T07:31:35;8.13;;;4.70;;
15317;SDS011;7759;52.528;13.346;2023-06-24T07:34:02;7.93;;;5.63;;
15317;SDS011;7759;52.528;13.346;2023-06-24T07:36:28;5.05;;;4.30;;
15317;SDS011;7759;52.528;13.346;2023-06-24T07:38:54;5.30;;;4.10;;
15317;SDS011;7759;52.528;13.346;2023-06-24T07:41:19;4.65;;;3.80;;
15317;SDS011;7759;52.528;13.346;2023-06-24T07:43:45;5.07;;;4.10;;
15317;SDS011;7759;52.528;13.346;2023-06-24T07:46:11;5.53;;;3.65;;
15317;SDS011;7759;52.528;13.346;2023-06-24T07:48:37;5.05;;;3.58;;
15317;SDS011;7759;52.528;13.346;2023-06-24T07:51:03;6.20;;;3.80;;
15317;SDS011;7759;52.528;13.346;2023-06-24T07:53:29;5.93;;;4.28;;
15317;SDS011;7759;52.528;13.346;2023-06-24T07:55:55;5.28;;;3.97;;
15317;SDS011;7759;52.528;13.346;2023-06-24T07:58:21;5.45;;;3.78;;
15317;SDS011;7759;52.528;13.346;2023-06-24T08:00:47;6.40;;;3.88;;
15317;SDS011;7759;52.528;13.346;2023-06-24T08:03:13;5.43;;;4.22;;
15317;SDS011;7759;52.528;13.346;2023-06-24T08:05:39;4.53;;;3.75;;
15317;SDS011;7759;52.528;13.346;2023-06-24T08:08:05;5.50;;;4.28;;
15317;SDS011;7759;52.528;13.346;2023-06-24T08:10:31;5.45;;;3.55;;
15317;SDS011;7759;52.528;13.346;2023-06-24T08:12:57;4.00;;;3.22;;
15317;SDS011;7759;52.528;13.346;2023-06-24T08:15:23;5.70;;;3.30;;
15317;SDS011;7759;52.528;13.346;2023-06-24T08:17:52;5.07;;;3.42;;
15317;SDS011;7759;52.528;13.346;2023-06-24T08:20:19;5.57;;;3.70;;
15317;SDS011;7759;52.528;13.346;2023-06-24T08:22:45;6.10;;;4.35;;
15317;SDS011;7759;52.528;13.346;2023-06-24T08:25:11;5.53;;;3.67;;
15317;SDS011;7759;52.528;13.346;2023-06-24T08:27:37;3.90;;;3.50;;
15317;SDS011;7759;52.528;13.346;2023-06-24T08:30:04;5.25;;;3.50;;
15317;SDS011;7759;52.528;13.346;2023-06-24T08:32:30;4.45;;;3.50;;
15317;SDS011;7759;52.528;13.346;2023-06-24T08:34:56;7.60;;;3.83;;
15317;SDS011;7759;52.528;13.346;2023-06-24T08:37:22;4.28;;;3.60;;
15317;SDS011;7759;52.528;13.346;2023-06-24T08:39:48;4.60;;;4.00;;
15317;SDS011;7759;52.528;13.346;2023-06-24T08:42:14;4.22;;;3.40;;
15317;SDS011;7759;52.528;13.346;2023-06-24T08:44:40;4.00;;;3.60;;
15317;SDS011;7759;52.528;13.346;2023-06-24T08:47:06;5.95;;;3.70;;
15317;SDS011;7759;52.528;13.346;2023-06-24T08:49:32;4.43;;;3.72;;
15317;SDS011;7759;52.528;13.346;2023-06-24T08:54:24;4.30;;;3.13;;
15317;SDS011;7759;52.528;13.346;2023-06-24T08:56:51;4.15;;;3.22;;
15317;SDS011;7759;52.528;13.346;2023-06-24T08:59:18;7.05;;;3.75;;
15317;SDS011;7759;52.528;13.346;2023-06-24T09:01:48;6.85;;;4.18;;
15317;SDS011;7759;52.528;13.346;2023-06-24T09:04:15;7.60;;;4.07;;
15317;SDS011;7759;52.528;13.346;2023-06-24T09:06:41;6.85;;;3.83;;
15317;SDS011;7759;52.528;13.346;2023-06-24T09:09:17;5.63;;;3.22;;
15317;SDS011;7759;52.528;13.346;2023-06-24T09:11:45;3.95;;;3.10;;
15317;SDS011;7759;52.528;13.346;2023-06-24T09:14:16;6.15;;;3.28;;
15317;SDS011;7759;52.528;13.346;2023-06-24T09:16:45;4.00;;;3.47;;
15317;SDS011;7759;52.528;13.346;2023-06-24T09:19:19;3.60;;;2.92;;
15317;SDS011;7759;52.528;13.346;2023-06-24T09:21:45;8.40;;;3.38;;
15317;SDS011;7759;52.528;13.346;2023-06-24T09:24:11;3.90;;;3.05;;
15317;SDS011;7759;52.528;13.346;2023-06-24T09:26:37;4.65;;;3.30;;
15317;SDS011;7759;52.528;13.346;2023-06-24T09:29:03;5.88;;;2.90;;
15317;SDS011;7759;52.528;13.346;2023-06-24T09:31:29;3.53;;;2.88;;
15317;SDS011;7759;52.528;13.346;2023-06-24T09:33:58;4.47;;;2.95;;
15317;SDS011;7759;52.528;13.346;2023-06-24T09:36:24;7.10;;;3.13;;
15317;SDS011;7759;52.528;13.346;2023-06-24T09:38:50;3.38;;;3.08;;
15317;SDS011;7759;52.528;13.346;2023-06-24T09:41:16;3.70;;;2.95;;
15317;SDS011;7759;52.528;13.346;2023-06-24T09:43:42;4.22;;;2.75;;
15317;SDS011;7759;52.528;13.346;2023-06-24T09:46:12;3.40;;;3.10;;
15317;SDS011;7759;52.528;13.346;2023-06-24T09:48:38;4.25;;;3.17;;
15317;SDS011;7759;52.528;13.346;2023-06-24T09:51:04;2.58;;;2.38;;
15317;SDS011;7759;52.528;13.346;2023-06-24T09:53:34;3.47;;;2.53;;
15317;SDS011;7759;52.528;13.346;2023-06-24T09:56:01;4.18;;;2.80;;
15317;SDS011;7759;52.528;13.346;2023-06-24T09:58:30;2.75;;;2.55;;
15317;SDS011;7759;52.528;13.346;2023-06-24T10:00:56;5.88;;;2.90;;
15317;SDS011;7759;52.528;13.346;2023-06-24T10:03:23;2.58;;;2.30;;
15317;SDS011;7759;52.528;13.346;2023-06-24T10:05:49;4.25;;;3.13;;
15317;SDS011;7759;52.528;13.346;2023-06-24T10:08:15;4.20;;;2.60;;
15317;SDS011;7759;52.528;13.346;2023-06-24T10:10:41;2.65;;;2.45;;
15317;SDS011;7759;52.528;13.346;2023-06-24T10:13:07;4.00;;;3.00;;
15317;SDS011;7759;52.528;13.346;2023-06-24T10:15:33;2.42;;;2.20;;
15317;SDS011;7759;52.528;13.346;2023-06-24T10:18:21;2.85;;;2.63;;
15317;SDS011;7759;52.528;13.346;2023-06-24T10:20:49;3.10;;;2.80;;
15317;SDS011;7759;52.528;13.346;2023-06-24T10:23:15;3.80;;;2.50;;
15317;SDS011;7759;52.528;13.346;2023-06-24T10:25:41;3.10;;;2.80;;
15317;SDS011;7759;52.528;13.346;2023-06-24T10:28:07;3.33;;;2.72;;
15317;SDS011;7759;52.528;13.346;2023-06-24T10:30:33;6.80;;;3.38;;
15317;SDS011;7759;52.528;13.346;2023-06-24T10:33:01;6.35;;;2.92;;
15317;SDS011;7759;52.528;13.346;2023-06-24T10:35:27;6.25;;;3.33;;
15317;SDS011;7759;52.528;13.346;2023-06-24T10:37:57;3.42;;;2.70;;
15317;SDS011;7759;52.528;13.346;2023-06-24T10:40:42;3.65;;;3.15;;
15317;SDS011;7759;52.528;13.346;2023-06-24T10:45:53;3.00;;;2.70;;
15317;SDS011;7759;52.528;13.346;2023-06-24T10:48:20;3.30;;;3.00;;
15317;SDS011;7759;52.528;13.346;2023-06-24T10:50:46;7.57;;;3.30;;
15317;SDS011;7759;52.528;13.346;2023-06-24T10:53:13;2.97;;;2.47;;
15317;SDS011;7759;52.528;13.346;2023-06-24T10:55:39;4.32;;;2.65;;
15317;SDS011;7759;52.528;13.346;2023-06-24T10:58:09;12.32;;;8.90;;
15317;SDS011;7759;52.528;13.346;2023-06-24T11:00:36;3.92;;;2.92;;
15317;SDS011;7759;52.528;13.346;2023-06-24T11:03:12;4.43;;;2.50;;
15317;SDS011;7759;52.528;13.346;2023-06-24T11:05:42;3.22;;;2.88;;
15317;SDS011;7759;52.528;13.346;2023-06-24T11:08:08;3.22;;;2.70;;
15317;SDS011;7759;52.528;13.346;2023-06-24T11:10:41;3.00;;;2.70;;
15317;SDS011;7759;52.528;13.346;2023-06-24T11:13:08;6.10;;;3.20;;
15317;SDS011;7759;52.528;13.346;2023-06-24T11:15:34;4.55;;;2.97;;
15317;SDS011;7759;52.528;13.346;2023-06-24T11:18:01;5.65;;;2.60;;
15317;SDS011;7759;52.528;13.346;2023-06-24T11:20:29;3.33;;;2.85;;
15317;SDS011;7759;52.528;13.346;2023-06-24T11:22:55;2.80;;;2.55;;
15317;SDS011;7759;52.528;13.346;2023-06-24T11:25:21;3.25;;;2.95;;
15317;SDS011;7759;52.528;13.346;2023-06-24T11:27:47;3.78;;;3.10;;
15317;SDS011;7759;52.528;13.346;2023-06-24T11:30:15;3.05;;;2.75;;
15317;SDS011;7759;52.528;13.346;2023-06-24T11:32:42;3.30;;;3.00;;
15317;SDS011;7759;52.528;13.346;2023-06-24T11:35:09;3.83;;;2.75;;
15317;SDS011;7759;52.528;13.346;2023-06-24T11:37:35;6.13;;;2.90;;
15317;SDS011;7759;52.528;13.346;2023-06-24T11:40:04;3.72;;;2.65;;
15317;SDS011;7759;52.528;13.346;2023-06-24T11:42:31;3.90;;;3.28;;
15317;SDS011;7759;52.528;13.346;2023-06-24T11:45:01;4.05;;;3.15;;
15317;SDS011;7759;52.528;13.346;2023-06-24T11:47:29;4.70;;;3.05;;
15317;SDS011;7759;52.528;13.346;2023-06-24T11:49:58;6.00;;;3.13;;
15317;SDS011;7759;52.528;13.346;2023-06-24T11:52:59;5.20;;;3.33;;
15317;SDS011;7759;52.528;13.346;2023-06-24T11:55:19;3.58;;;3.13;;
15317;SDS011;7759;52.528;13.346;2023-06-24T11:57:52;4.32;;;2.80;;
15317;SDS011;7759;52.528;13.346;2023-06-24T12:00:25;4.32;;;3.03;;
15317;SDS011;7759;52.528;13.346;2023-06-24T12:02:58;3.35;;;2.65;;
15317;SDS011;7759;52.528;13.346;2023-06-24T12:05:31;6.18;;;3.40;;
15317;SDS011;7759;52.528;13.346;2023-06-24T12:08:07;3.20;;;2.90;;
15317;SDS011;7759;52.528;13.346;2023-06-24T12:10:34;4.47;;;3.33;;
15317;SDS011;7759;52.528;13.346;2023-06-24T12:13:00;3.75;;;2.90;;
15317;SDS011;7759;52.528;13.346;2023-06-24T12:15:27;4.32;;;3.28;;
15317;SDS011;7759;52.528;13.346;2023-06-24T12:17:53;3.85;;;2.60;;
15317;SDS011;7759;52.528;13.346;2023-06-24T12:20:19;3.05;;;2.60;;
15317;SDS011;7759;52.528;13.346;2023-06-24T12:22:47;5.72;;;2.97;;
15317;SDS011;7759;52.528;13.346;2023-06-24T12:25:13;2.63;;;2.35;;
15317;SDS011;7759;52.528;13.346;2023-06-24T12:27:39;2.67;;;2.47;;
15317;SDS011;7759;52.528;13.346;2023-06-24T12:30:05;7.47;;;3.28;;
15317;SDS011;7759;52.528;13.346;2023-06-24T12:32:31;6.43;;;5.03;;
15317;SDS011;7759;52.528;13.346;2023-06-24T12:34:57;3.70;;;2.90;;
15317;SDS011;7759;52.528;13.346;2023-06-24T12:37:23;3.30;;;2.42;;
15317;SDS011;7759;52.528;13.346;2023-06-24T12:39:49;3.55;;;2.92;;
15317;SDS011;7759;52.528;13.346;2023-06-24T12:42:18;3.15;;;2.85;;
15317;SDS011;7759;52.528;13.346;2023-06-24T12:44:44;3.33;;;2.75;;
15317;SDS011;7759;52.528;13.346;2023-06-24T12:47:10;4.00;;;3.17;;
15317;SDS011;7759;52.528;13.346;2023-06-24T12:49:35;5.07;;;3.40;;
15317;SDS011;7759;52.528;13.346;2023-06-24T12:52:03;3.50;;;2.92;;
15317;SDS011;7759;52.528;13.346;2023-06-24T12:54:29;5.60;;;3.20;;
15317;SDS011;7759;52.528;13.346;2023-06-24T12:56:55;3.70;;;3.38;;
15317;SDS011;7759;52.528;13.346;2023-06-24T12:59:22;4.78;;;2.63;;
15317;SDS011;7759;52.528;13.346;2023-06-24T13:01:48;4.65;;;3.40;;
15317;SDS011;7759;52.528;13.346;2023-06-24T13:04:13;3.20;;;2.70;;
15317;SDS011;7759;52.528;13.346;2023-06-24T13:06:39;3.08;;;2.78;;
15317;SDS011;7759;52.528;13.346;2023-06-24T13:09:05;2.80;;;2.60;;
15317;SDS011;7759;52.528;13.346;2023-06-24T13:11:31;3.47;;;3.17;;
15317;SDS011;7759;52.528;13.346;2023-06-24T13:13:57;3.22;;;2.90;;
15317;SDS011;7759;52.528;13.346;2023-06-24T13:16:23;3.13;;;2.50;;
15317;SDS011;7759;52.528;13.346;2023-06-24T13:18:49;3.20;;;2.90;;
15317;SDS011;7759;52.528;13.346;2023-06-24T13:21:15;3.60;;;3.30;;
15317;SDS011;7759;52.528;13.346;2023-06-24T13:23:41;2.95;;;2.70;;
15317;SDS011;7759;52.528;13.346;2023-06-24T13:26:07;3.63;;;3.08;;
15317;SDS011;7759;52.528;13.346;2023-06-24T13:28:33;5.38;;;2.72;;
15317;SDS011;7759;52.528;13.346;2023-06-24T13:30:59;3.50;;;3.10;;
15317;SDS011;7759;52.528;13.346;2023-06-24T13:33:24;3.45;;;3.15;;
15317;SDS011;7759;52.528;13.346;2023-06-24T13:35:51;4.60;;;3.00;;
15317;SDS011;7759;52.528;13.346;2023-06-24T13:38:17;7.13;;;3.55;;
15317;SDS011;7759;52.528;13.346;2023-06-24T13:40:43;3.35;;;2.70;;
15317;SDS011;7759;52.528;13.346;2023-06-24T13:43:09;3.78;;;3.30;;
15317;SDS011;7759;52.528;13.346;2023-06-24T13:45:35;3.17;;;2.75;;
15317;SDS011;7759;52.528;13.346;2023-06-24T13:48:01;5.03;;;3.47;;
15317;SDS011;7759;52.528;13.346;2023-06-24T13:50:27;3.30;;;2.60;;
15317;SDS011;7759;52.528;13.346;2023-06-24T13:52:54;3.60;;;3.25;;
15317;SDS011;7759;52.528;13.346;2023-06-24T13:55:20;4.72;;;2.83;;
15317;SDS011;7759;52.528;13.346;2023-06-24T13:57:46;3.15;;;2.80;;
15317;SDS011;7759;52.528;13.346;2023-06-24T14:00:12;3.47;;;3.17;;
15317;SDS011;7759;52.528;13.346;2023-06-24T14:02:39;3.63;;;3.05;;
15317;SDS011;7759;52.528;13.346;2023-06-24T14:05:05;3.90;;;3.40;;
15317;SDS011;7759;52.528;13.346;2023-06-24T14:07:31;5.63;;;3.20;;
15317;SDS011;7759;52.528;13.346;2023-06-24T14:09:57;3.85;;;3.20;;
15317;SDS011;7759;52.528;13.346;2023-06-24T14:12:23;5.57;;;3.10;;
15317;SDS011;7759;52.528;13.346;2023-06-24T14:14:49;3.78;;;2.92;;
15317;SDS011;7759;52.528;13.346;2023-06-24T14:17:15;4.07;;;3.15;;
15317;SDS011;7759;52.528;13.346;2023-06-24T14:19:41;3.78;;;2.90;;
15317;SDS011;7759;52.528;13.346;2023-06-24T14:22:07;4.30;;;2.90;;
15317;SDS011;7759;52.528;13.346;2023-06-24T14:24:33;5.80;;;3.20;;
15317;SDS011;7759;52.528;13.346;2023-06-24T14:26:59;4.18;;;3.20;;
15317;SDS011;7759;52.528;13.346;2023-06-24T14:29:25;3.60;;;3.10;;
15317;SDS011;7759;52.528;13.346;2023-06-24T14:31:51;4.28;;;3.47;;
15317;SDS011;7759;52.528;13.346;2023-06-24T14:34:17;4.72;;;3.00;;
15317;SDS011;7759;52.528;13.346;2023-06-24T14:36:44;4.10;;;3.15;;
15317;SDS011;7759;52.528;13.346;2023-06-24T14:39:12;3.78;;;2.80;;
15317;SDS011;7759;52.528;13.346;2023-06-24T14:41:37;3.80;;;2.60;;
15317;SDS011;7759;52.528;13.346;2023-06-24T14:44:03;5.03;;;2.85;;
15317;SDS011;7759;52.528;13.346;2023-06-24T14:46:29;3.85;;;3.08;;
15317;SDS011;7759;52.528;13.346;2023-06-24T14:48:55;5.22;;;2.90;;
15317;SDS011;7759;52.528;13.346;2023-06-24T14:51:21;3.90;;;2.78;;
15317;SDS011;7759;52.528;13.346;2023-06-24T14:53:47;4.97;;;2.80;;